sensor_id;sensor_type;location;lat;lon;timestamp;P1;durP1;ratioP1;P2;durP2;ratioP2
5823;SDS011;2938;52.254;12.988;2023-02-01T00:01:21;19.88;;;4.93;;
5823;SDS011;2938;52.254;12.988;2023-02-01T00:03:46;22.13;;;5.85;;
5823;SDS011;2938;52.254;12.988;2023-02-01T00:06:12;29.30;;;4.65;;
5823;SDS011;2938;52.254;12.988;2023-02-01T00:08:37;21.65;;;4.05;;
5823;SDS011;2938;52.254;12.988;2023-02-01T00:11:03;29.45;;;6.35;;
5823;SDS011;2938;52.254;12.988;2023-02-01T00:13:30;25.30;;;6.00;;
5823;SDS011;2938;52.254;12.988;2023-02-01T00:16:03;20.02;;;5.07;;
5823;SDS011;2938;52.254;12.988;2023-02-01T00:18:29;22.67;;;5.10;;
5823;SDS011;2938;52.254;12.988;2023-02-01T00:20:54;36.20;;;5.90;;
5823;SDS011;2938;52.254;12.988;2023-02-01T00:23:19;23.13;;;6.45;;
5823;SDS011;2938;52.254;12.988;2023-02-01T00:25:45;28.17;;;4.65;;
5823;SDS011;2938;52.254;12.988;2023-02-01T00:28:10;20.33;;;4.70;;
5823;SDS011;2938;52.254;12.988;2023-02-01T00:30:37;27.40;;;4.70;;
5823;SDS011;2938;52.254;12.988;2023-02-01T00:33:03;27.52;;;5.47;;
5823;SDS011;2938;52.254;12.988;2023-02-01T00:35:28;31.52;;;6.03;;
5823;SDS011;2938;52.254;12.988;2023-02-01T00:37:53;19.50;;;4.40;;
5823;SDS011;2938;52.254;12.988;2023-02-01T00:40:18;12.88;;;4.22;;
5823;SDS011;2938;52.254;12.988;2023-02-01T00:42:44;24.25;;;4.30;;
5823;SDS011;2938;52.254;12.988;2023-02-01T00:45:09;21.63;;;4.43;;
5823;SDS011;2938;52.254;12.988;2023-02-01T00:47:35;32.13;;;5.18;;
5823;SDS011;2938;52.254;12.988;2023-02-01T00:50:00;23.42;;;4.07;;
5823;SDS011;2938;52.254;12.988;2023-02-01T00:52:25;18.55;;;5.07;;
5823;SDS011;2938;52.254;12.988;2023-02-01T00:54:51;32.50;;;6.45;;
5823;SDS011;2938;52.254;12.988;2023-02-01T00:57:16;30.10;;;5.15;;
5823;SDS011;2938;52.254;12.988;2023-02-01T00:59:41;15.20;;;4.07;;
5823;SDS011;2938;52.254;12.988;2023-02-01T01:02:07;17.98;;;3.65;;
5823;SDS011;2938;52.254;12.988;2023-02-01T01:04:34;22.45;;;6.80;;
5823;SDS011;2938;52.254;12.988;2023-02-01T01:07:00;32.80;;;5.20;;
5823;SDS011;2938;52.254;12.988;2023-02-01T01:09:25;23.10;;;4.95;;
5823;SDS011;2938;52.254;12.988;2023-02-01T01:11:50;12.90;;;3.42;;
5823;SDS011;2938;52.254;12.988;2023-02-01T01:14:17;22.80;;;4.88;;
5823;SDS011;2938;52.254;12.988;2023-02-01T01:16:42;19.95;;;4.60;;
5823;SDS011;2938;52.254;12.988;2023-02-01T01:19:08;32.90;;;5.57;;
5823;SDS011;2938;52.254;12.988;2023-02-01T01:21:33;24.35;;;4.78;;
5823;SDS011;2938;52.254;12.988;2023-02-01T01:23:58;17.70;;;3.95;;
5823;SDS011;2938;52.254;12.988;2023-02-01T01:26:26;27.40;;;5.60;;
5823;SDS011;2938;52.254;12.988;2023-02-01T01:28:54;15.88;;;3.90;;
5823;SDS011;2938;52.254;12.988;2023-02-01T01:31:20;25.42;;;4.88;;
5823;SDS011;2938;52.254;12.988;2023-02-01T01:33:49;25.02;;;4.78;;
5823;SDS011;2938;52.254;12.988;2023-02-01T01:36:16;31.17;;;5.05;;
5823;SDS011;2938;52.254;12.988;2023-02-01T01:38:41;20.00;;;4.63;;
5823;SDS011;2938;52.254;12.988;2023-02-01T01:41:08;23.48;;;4.55;;
5823;SDS011;2938;52.254;12.988;2023-02-01T01:46:19;23.40;;;5.43;;
5823;SDS011;2938;52.254;12.988;2023-02-01T01:48:47;29.15;;;4.35;;
5823;SDS011;2938;52.254;12.988;2023-02-01T01:51:13;27.17;;;5.35;;
5823;SDS011;2938;52.254;12.988;2023-02-01T01:53:48;34.95;;;5.22;;
5823;SDS011;2938;52.254;12.988;2023-02-01T01:56:18;17.48;;;3.83;;
5823;SDS011;2938;52.254;12.988;2023-02-01T01:58:43;17.60;;;6.03;;
5823;SDS011;2938;52.254;12.988;2023-02-01T02:01:09;22.35;;;4.70;;
5823;SDS011;2938;52.254;12.988;2023-02-01T02:03:41;24.42;;;5.43;;
5823;SDS011;2938;52.254;12.988;2023-02-01T02:06:12;19.08;;;4.57;;
5823;SDS011;2938;52.254;12.988;2023-02-01T02:08:45;22.15;;;4.68;;
5823;SDS011;2938;52.254;12.988;2023-02-01T02:11:12;26.88;;;4.65;;
5823;SDS011;2938;52.254;12.988;2023-02-01T02:13:40;30.23;;;4.53;;
5823;SDS011;2938;52.254;12.988;2023-02-01T02:31:00;31.55;;;6.43;;
5823;SDS011;2938;52.254;12.988;2023-02-01T02:34:05;19.80;;;5.57;;
5823;SDS011;2938;52.254;12.988;2023-02-01T02:36:42;32.33;;;5.95;;
5823;SDS011;2938;52.254;12.988;2023-02-01T02:39:32;27.13;;;3.90;;
5823;SDS011;2938;52.254;12.988;2023-02-01T02:42:17;20.17;;;4.40;;
5823;SDS011;2938;52.254;12.988;2023-02-01T02:45:18;18.20;;;4.63;;
5823;SDS011;2938;52.254;12.988;2023-02-01T02:48:18;18.20;;;4.25;;
5823;SDS011;2938;52.254;12.988;2023-02-01T02:50:53;19.90;;;5.75;;
5823;SDS011;2938;52.254;12.988;2023-02-01T02:53:53;21.10;;;4.85;;
5823;SDS011;2938;52.254;12.988;2023-02-01T02:56:51;23.35;;;4.88;;
5823;SDS011;2938;52.254;12.988;2023-02-01T02:59:36;15.88;;;4.13;;
5823;SDS011;2938;52.254;12.988;2023-02-01T03:02:22;24.80;;;6.72;;
5823;SDS011;2938;52.254;12.988;2023-02-01T03:05:06;37.05;;;5.97;;
5823;SDS011;2938;52.254;12.988;2023-02-01T03:10:10;24.88;;;7.28;;
5823;SDS011;2938;52.254;12.988;2023-02-01T03:12:43;25.75;;;7.05;;
5823;SDS011;2938;52.254;12.988;2023-02-01T03:15:39;20.38;;;5.05;;
5823;SDS011;2938;52.254;12.988;2023-02-01T03:18:18;25.23;;;6.38;;
5823;SDS011;2938;52.254;12.988;2023-02-01T03:20:55;28.15;;;5.63;;
5823;SDS011;2938;52.254;12.988;2023-02-01T03:23:23;17.27;;;5.50;;
5823;SDS011;2938;52.254;12.988;2023-02-01T03:25:53;26.02;;;5.22;;
5823;SDS011;2938;52.254;12.988;2023-02-01T03:28:20;24.92;;;6.85;;
5823;SDS011;2938;52.254;12.988;2023-02-01T03:30:48;28.23;;;5.95;;
5823;SDS011;2938;52.254;12.988;2023-02-01T03:33:15;18.50;;;6.05;;
5823;SDS011;2938;52.254;12.988;2023-02-01T03:35:50;30.02;;;5.18;;
5823;SDS011;2938;52.254;12.988;2023-02-01T03:41:15;21.90;;;6.70;;
5823;SDS011;2938;52.254;12.988;2023-02-01T03:49:16;24.75;;;6.57;;
5823;SDS011;2938;52.254;12.988;2023-02-01T03:51:45;26.30;;;6.03;;
5823;SDS011;2938;52.254;12.988;2023-02-01T03:54:13;20.30;;;5.97;;
5823;SDS011;2938;52.254;12.988;2023-02-01T03:56:40;28.70;;;5.95;;
5823;SDS011;2938;52.254;12.988;2023-02-01T03:59:09;21.52;;;6.03;;
5823;SDS011;2938;52.254;12.988;2023-02-01T04:01:35;23.98;;;3.95;;
5823;SDS011;2938;52.254;12.988;2023-02-01T04:04:00;22.83;;;6.03;;
5823;SDS011;2938;52.254;12.988;2023-02-01T04:06:25;22.20;;;4.78;;
5823;SDS011;2938;52.254;12.988;2023-02-01T04:08:51;33.25;;;5.65;;
5823;SDS011;2938;52.254;12.988;2023-02-01T04:11:16;18.75;;;4.65;;
5823;SDS011;2938;52.254;12.988;2023-02-01T04:13:42;10.23;;;5.13;;
5823;SDS011;2938;52.254;12.988;2023-02-01T04:16:07;20.05;;;5.07;;
5823;SDS011;2938;52.254;12.988;2023-02-01T04:18:33;34.90;;;7.28;;
5823;SDS011;2938;52.254;12.988;2023-02-01T04:20:58;20.48;;;5.00;;
5823;SDS011;2938;52.254;12.988;2023-02-01T04:23:24;34.00;;;5.78;;
5823;SDS011;2938;52.254;12.988;2023-02-01T04:25:49;15.20;;;4.10;;
5823;SDS011;2938;52.254;12.988;2023-02-01T04:28:15;22.40;;;6.10;;
5823;SDS011;2938;52.254;12.988;2023-02-01T04:30:40;30.70;;;5.65;;
5823;SDS011;2938;52.254;12.988;2023-02-01T04:33:06;26.48;;;5.25;;
5823;SDS011;2938;52.254;12.988;2023-02-01T04:35:31;19.85;;;4.65;;
5823;SDS011;2938;52.254;12.988;2023-02-01T04:37:56;20.77;;;4.55;;
5823;SDS011;2938;52.254;12.988;2023-02-01T04:40:22;28.00;;;6.40;;
5823;SDS011;2938;52.254;12.988;2023-02-01T04:42:47;43.30;;;7.30;;
5823;SDS011;2938;52.254;12.988;2023-02-01T04:45:12;22.88;;;7.75;;
5823;SDS011;2938;52.254;12.988;2023-02-01T04:47:38;23.88;;;5.38;;
5823;SDS011;2938;52.254;12.988;2023-02-01T04:50:03;20.75;;;6.00;;
5823;SDS011;2938;52.254;12.988;2023-02-01T04:52:30;33.40;;;6.03;;
5823;SDS011;2938;52.254;12.988;2023-02-01T04:54:55;33.03;;;5.78;;
5823;SDS011;2938;52.254;12.988;2023-02-01T04:57:22;23.40;;;5.03;;
5823;SDS011;2938;52.254;12.988;2023-02-01T04:59:47;22.92;;;5.47;;
5823;SDS011;2938;52.254;12.988;2023-02-01T05:02:13;26.30;;;5.55;;
5823;SDS011;2938;52.254;12.988;2023-02-01T05:04:38;25.80;;;5.10;;
5823;SDS011;2938;52.254;12.988;2023-02-01T05:07:03;19.13;;;4.97;;
5823;SDS011;2938;52.254;12.988;2023-02-01T05:09:29;25.13;;;6.15;;
5823;SDS011;2938;52.254;12.988;2023-02-01T05:11:54;21.73;;;5.80;;
5823;SDS011;2938;52.254;12.988;2023-02-01T05:14:38;38.58;;;7.53;;
5823;SDS011;2938;52.254;12.988;2023-02-01T05:17:03;26.08;;;7.32;;
5823;SDS011;2938;52.254;12.988;2023-02-01T05:19:28;31.88;;;7.00;;
5823;SDS011;2938;52.254;12.988;2023-02-01T05:21:54;24.75;;;6.28;;
5823;SDS011;2938;52.254;12.988;2023-02-01T05:24:19;32.00;;;7.10;;
5823;SDS011;2938;52.254;12.988;2023-02-01T05:26:45;25.77;;;5.63;;
5823;SDS011;2938;52.254;12.988;2023-02-01T05:29:11;29.27;;;5.82;;
5823;SDS011;2938;52.254;12.988;2023-02-01T05:31:37;23.67;;;4.88;;
5823;SDS011;2938;52.254;12.988;2023-02-01T05:34:02;27.55;;;5.80;;
5823;SDS011;2938;52.254;12.988;2023-02-01T05:36:28;26.77;;;5.05;;
5823;SDS011;2938;52.254;12.988;2023-02-01T05:38:53;32.00;;;6.00;;
5823;SDS011;2938;52.254;12.988;2023-02-01T05:41:18;33.28;;;5.75;;
5823;SDS011;2938;52.254;12.988;2023-02-01T05:43:43;35.90;;;7.55;;
5823;SDS011;2938;52.254;12.988;2023-02-01T05:46:09;29.50;;;6.53;;
5823;SDS011;2938;52.254;12.988;2023-02-01T05:48:41;24.08;;;5.97;;
5823;SDS011;2938;52.254;12.988;2023-02-01T05:51:07;25.45;;;5.78;;
5823;SDS011;2938;52.254;12.988;2023-02-01T05:53:32;18.10;;;5.75;;
5823;SDS011;2938;52.254;12.988;2023-02-01T05:55:58;22.00;;;6.10;;
5823;SDS011;2938;52.254;12.988;2023-02-01T05:58:23;24.63;;;6.28;;
5823;SDS011;2938;52.254;12.988;2023-02-01T06:00:48;21.17;;;5.68;;
5823;SDS011;2938;52.254;12.988;2023-02-01T06:03:14;26.45;;;5.15;;
5823;SDS011;2938;52.254;12.988;2023-02-01T06:05:39;21.10;;;5.35;;
5823;SDS011;2938;52.254;12.988;2023-02-01T06:08:04;24.25;;;6.68;;
5823;SDS011;2938;52.254;12.988;2023-02-01T06:10:32;14.35;;;4.13;;
5823;SDS011;2938;52.254;12.988;2023-02-01T06:12:57;29.95;;;6.28;;
5823;SDS011;2938;52.254;12.988;2023-02-01T06:15:23;23.60;;;5.80;;
5823;SDS011;2938;52.254;12.988;2023-02-01T06:17:48;21.23;;;5.25;;
5823;SDS011;2938;52.254;12.988;2023-02-01T06:20:14;28.17;;;5.47;;
5823;SDS011;2938;52.254;12.988;2023-02-01T06:22:40;17.58;;;4.80;;
5823;SDS011;2938;52.254;12.988;2023-02-01T06:25:06;34.25;;;8.15;;
5823;SDS011;2938;52.254;12.988;2023-02-01T06:27:32;13.43;;;5.00;;
5823;SDS011;2938;52.254;12.988;2023-02-01T06:29:58;20.75;;;5.45;;
5823;SDS011;2938;52.254;12.988;2023-02-01T06:32:23;25.20;;;5.32;;
5823;SDS011;2938;52.254;12.988;2023-02-01T06:34:49;28.17;;;5.50;;
5823;SDS011;2938;52.254;12.988;2023-02-01T06:37:14;22.70;;;6.30;;
5823;SDS011;2938;52.254;12.988;2023-02-01T06:39:40;23.17;;;6.28;;
5823;SDS011;2938;52.254;12.988;2023-02-01T06:42:05;27.52;;;6.95;;
5823;SDS011;2938;52.254;12.988;2023-02-01T06:44:30;22.38;;;5.60;;
5823;SDS011;2938;52.254;12.988;2023-02-01T06:46:56;25.60;;;5.38;;
5823;SDS011;2938;52.254;12.988;2023-02-01T06:49:21;14.60;;;6.63;;
5823;SDS011;2938;52.254;12.988;2023-02-01T06:51:47;25.77;;;6.38;;
5823;SDS011;2938;52.254;12.988;2023-02-01T06:54:12;20.88;;;7.22;;
5823;SDS011;2938;52.254;12.988;2023-02-01T06:56:37;23.63;;;5.60;;
5823;SDS011;2938;52.254;12.988;2023-02-01T06:59:03;24.80;;;6.28;;
5823;SDS011;2938;52.254;12.988;2023-02-01T07:01:29;27.08;;;5.65;;
5823;SDS011;2938;52.254;12.988;2023-02-01T07:03:54;18.98;;;6.57;;
5823;SDS011;2938;52.254;12.988;2023-02-01T07:06:22;30.58;;;6.55;;
5823;SDS011;2938;52.254;12.988;2023-02-01T07:08:48;25.13;;;5.88;;
5823;SDS011;2938;52.254;12.988;2023-02-01T07:11:14;17.92;;;5.68;;
5823;SDS011;2938;52.254;12.988;2023-02-01T07:13:40;21.73;;;6.18;;
5823;SDS011;2938;52.254;12.988;2023-02-01T07:16:06;25.70;;;6.53;;
5823;SDS011;2938;52.254;12.988;2023-02-01T07:18:34;15.32;;;5.25;;
5823;SDS011;2938;52.254;12.988;2023-02-01T07:20:59;24.10;;;5.28;;
5823;SDS011;2938;52.254;12.988;2023-02-01T07:23:25;15.07;;;5.40;;
5823;SDS011;2938;52.254;12.988;2023-02-01T07:25:58;26.90;;;5.80;;
5823;SDS011;2938;52.254;12.988;2023-02-01T07:28:25;28.17;;;7.45;;
5823;SDS011;2938;52.254;12.988;2023-02-01T07:30:51;29.13;;;6.82;;
5823;SDS011;2938;52.254;12.988;2023-02-01T07:33:20;22.40;;;8.13;;
5823;SDS011;2938;52.254;12.988;2023-02-01T07:35:46;25.20;;;6.13;;
5823;SDS011;2938;52.254;12.988;2023-02-01T07:38:14;25.83;;;6.35;;
5823;SDS011;2938;52.254;12.988;2023-02-01T07:40:40;25.05;;;6.68;;
5823;SDS011;2938;52.254;12.988;2023-02-01T07:43:06;22.48;;;6.00;;
5823;SDS011;2938;52.254;12.988;2023-02-01T07:45:32;19.30;;;6.10;;
5823;SDS011;2938;52.254;12.988;2023-02-01T07:47:58;21.33;;;6.50;;
5823;SDS011;2938;52.254;12.988;2023-02-01T07:50:23;22.00;;;6.10;;
5823;SDS011;2938;52.254;12.988;2023-02-01T07:52:49;15.93;;;6.95;;
5823;SDS011;2938;52.254;12.988;2023-02-01T07:55:14;28.17;;;5.40;;
5823;SDS011;2938;52.254;12.988;2023-02-01T07:57:39;25.02;;;6.20;;
5823;SDS011;2938;52.254;12.988;2023-02-01T08:00:05;14.55;;;5.78;;
5823;SDS011;2938;52.254;12.988;2023-02-01T08:02:49;20.00;;;7.03;;
5823;SDS011;2938;52.254;12.988;2023-02-01T08:05:20;18.10;;;6.47;;
5823;SDS011;2938;52.254;12.988;2023-02-01T08:07:48;18.47;;;6.40;;
5823;SDS011;2938;52.254;12.988;2023-02-01T08:10:15;26.80;;;8.48;;
5823;SDS011;2938;52.254;12.988;2023-02-01T08:12:41;18.80;;;6.95;;
5823;SDS011;2938;52.254;12.988;2023-02-01T08:15:06;17.05;;;6.78;;
5823;SDS011;2938;52.254;12.988;2023-02-01T08:17:31;15.23;;;6.75;;
5823;SDS011;2938;52.254;12.988;2023-02-01T08:19:57;13.15;;;6.00;;
5823;SDS011;2938;52.254;12.988;2023-02-01T08:22:22;15.10;;;8.25;;
5823;SDS011;2938;52.254;12.988;2023-02-01T08:24:48;26.73;;;8.05;;
5823;SDS011;2938;52.254;12.988;2023-02-01T08:27:13;16.45;;;7.07;;
5823;SDS011;2938;52.254;12.988;2023-02-01T08:29:39;18.80;;;7.65;;
5823;SDS011;2938;52.254;12.988;2023-02-01T08:32:04;32.75;;;9.18;;
5823;SDS011;2938;52.254;12.988;2023-02-01T08:34:29;15.60;;;6.63;;
5823;SDS011;2938;52.254;12.988;2023-02-01T08:36:55;23.38;;;6.60;;
5823;SDS011;2938;52.254;12.988;2023-02-01T08:39:23;22.83;;;7.07;;
5823;SDS011;2938;52.254;12.988;2023-02-01T08:41:49;24.90;;;6.80;;
5823;SDS011;2938;52.254;12.988;2023-02-01T08:44:34;16.50;;;4.57;;
5823;SDS011;2938;52.254;12.988;2023-02-01T08:47:00;17.15;;;6.32;;
5823;SDS011;2938;52.254;12.988;2023-02-01T08:49:25;22.98;;;6.20;;
5823;SDS011;2938;52.254;12.988;2023-02-01T08:51:51;15.45;;;6.63;;
5823;SDS011;2938;52.254;12.988;2023-02-01T08:54:16;13.65;;;5.68;;
5823;SDS011;2938;52.254;12.988;2023-02-01T08:56:41;19.77;;;6.93;;
5823;SDS011;2938;52.254;12.988;2023-02-01T08:59:07;27.92;;;6.88;;
5823;SDS011;2938;52.254;12.988;2023-02-01T09:01:32;14.45;;;5.72;;
5823;SDS011;2938;52.254;12.988;2023-02-01T09:03:57;15.20;;;4.82;;
5823;SDS011;2938;52.254;12.988;2023-02-01T09:06:22;15.40;;;6.22;;
5823;SDS011;2938;52.254;12.988;2023-02-01T09:08:48;23.27;;;6.45;;
5823;SDS011;2938;52.254;12.988;2023-02-01T09:11:15;15.18;;;6.60;;
5823;SDS011;2938;52.254;12.988;2023-02-01T09:13:41;14.50;;;4.47;;
5823;SDS011;2938;52.254;12.988;2023-02-01T09:16:07;14.60;;;5.20;;
5823;SDS011;2938;52.254;12.988;2023-02-01T09:18:33;16.27;;;5.18;;
5823;SDS011;2938;52.254;12.988;2023-02-01T09:20:58;13.57;;;5.07;;
5823;SDS011;2938;52.254;12.988;2023-02-01T09:23:23;14.93;;;4.78;;
5823;SDS011;2938;52.254;12.988;2023-02-01T09:25:49;8.35;;;3.13;;
5823;SDS011;2938;52.254;12.988;2023-02-01T09:28:16;14.77;;;4.70;;
5823;SDS011;2938;52.254;12.988;2023-02-01T09:30:41;9.10;;;2.55;;
5823;SDS011;2938;52.254;12.988;2023-02-01T09:33:08;8.68;;;4.15;;
5823;SDS011;2938;52.254;12.988;2023-02-01T09:35:33;19.20;;;4.30;;
5823;SDS011;2938;52.254;12.988;2023-02-01T09:37:59;9.88;;;3.22;;
5823;SDS011;2938;52.254;12.988;2023-02-01T09:40:24;14.45;;;3.72;;
5823;SDS011;2938;52.254;12.988;2023-02-01T09:48:33;9.65;;;3.33;;
5823;SDS011;2938;52.254;12.988;2023-02-01T09:51:02;9.48;;;2.13;;
5823;SDS011;2938;52.254;12.988;2023-02-01T09:53:31;8.30;;;2.72;;
5823;SDS011;2938;52.254;12.988;2023-02-01T09:59:08;3.60;;;1.25;;
5823;SDS011;2938;52.254;12.988;2023-02-01T10:02:04;2.88;;;1.20;;
5823;SDS011;2938;52.254;12.988;2023-02-01T10:04:34;4.68;;;1.25;;
5823;SDS011;2938;52.254;12.988;2023-02-01T10:07:05;1.38;;;1.17;;
5823;SDS011;2938;52.254;12.988;2023-02-01T10:09:42;2.45;;;1.10;;
5823;SDS011;2938;52.254;12.988;2023-02-01T10:15:10;5.30;;;1.80;;
5823;SDS011;2938;52.254;12.988;2023-02-01T10:17:47;6.60;;;2.00;;
5823;SDS011;2938;52.254;12.988;2023-02-01T10:25:54;4.05;;;1.88;;
5823;SDS011;2938;52.254;12.988;2023-02-01T10:28:24;5.78;;;1.88;;
5823;SDS011;2938;52.254;12.988;2023-02-01T10:30:51;8.25;;;2.67;;
5823;SDS011;2938;52.254;12.988;2023-02-01T10:33:33;7.55;;;2.97;;
5823;SDS011;2938;52.254;12.988;2023-02-01T10:36:08;4.20;;;2.28;;
5823;SDS011;2938;52.254;12.988;2023-02-01T10:38:39;8.65;;;3.08;;
5823;SDS011;2938;52.254;12.988;2023-02-01T10:41:10;10.50;;;2.47;;
5823;SDS011;2938;52.254;12.988;2023-02-01T10:43:37;12.02;;;4.28;;
5823;SDS011;2938;52.254;12.988;2023-02-01T10:46:04;5.55;;;2.97;;
5823;SDS011;2938;52.254;12.988;2023-02-01T10:48:29;7.88;;;2.67;;
5823;SDS011;2938;52.254;12.988;2023-02-01T10:50:57;11.77;;;3.45;;
5823;SDS011;2938;52.254;12.988;2023-02-01T10:53:25;11.80;;;3.53;;
5823;SDS011;2938;52.254;12.988;2023-02-01T10:55:54;8.48;;;2.50;;
5823;SDS011;2938;52.254;12.988;2023-02-01T10:58:25;14.45;;;4.38;;
5823;SDS011;2938;52.254;12.988;2023-02-01T11:00:57;10.18;;;3.17;;
5823;SDS011;2938;52.254;12.988;2023-02-01T11:08:52;8.93;;;3.80;;
5823;SDS011;2938;52.254;12.988;2023-02-01T11:11:19;18.52;;;3.75;;
5823;SDS011;2938;52.254;12.988;2023-02-01T11:13:45;12.80;;;2.92;;
5823;SDS011;2938;52.254;12.988;2023-02-01T11:18:44;9.70;;;3.20;;
5823;SDS011;2938;52.254;12.988;2023-02-01T11:21:11;8.63;;;2.85;;
5823;SDS011;2938;52.254;12.988;2023-02-01T11:23:40;10.32;;;3.42;;
5823;SDS011;2938;52.254;12.988;2023-02-01T11:26:40;10.88;;;3.67;;
5823;SDS011;2938;52.254;12.988;2023-02-01T11:29:08;11.07;;;2.47;;
5823;SDS011;2938;52.254;12.988;2023-02-01T11:31:36;10.20;;;3.10;;
5823;SDS011;2938;52.254;12.988;2023-02-01T11:34:11;14.43;;;3.58;;
5823;SDS011;2938;52.254;12.988;2023-02-01T11:36:42;12.82;;;2.80;;
5823;SDS011;2938;52.254;12.988;2023-02-01T11:39:23;9.57;;;3.63;;
5823;SDS011;2938;52.254;12.988;2023-02-01T11:44:40;9.98;;;2.90;;
5823;SDS011;2938;52.254;12.988;2023-02-01T11:47:23;7.75;;;2.72;;
5823;SDS011;2938;52.254;12.988;2023-02-01T11:50:01;17.52;;;3.25;;
5823;SDS011;2938;52.254;12.988;2023-02-01T11:52:34;15.05;;;4.75;;
5823;SDS011;2938;52.254;12.988;2023-02-01T11:55:29;14.55;;;4.63;;
5823;SDS011;2938;52.254;12.988;2023-02-01T12:01:14;10.45;;;2.30;;
5823;SDS011;2938;52.254;12.988;2023-02-01T12:06:51;11.98;;;4.07;;
5823;SDS011;2938;52.254;12.988;2023-02-01T12:09:29;12.13;;;3.30;;
5823;SDS011;2938;52.254;12.988;2023-02-01T12:11:58;8.55;;;3.03;;
5823;SDS011;2938;52.254;12.988;2023-02-01T12:20:41;11.32;;;2.83;;
5823;SDS011;2938;52.254;12.988;2023-02-01T12:23:19;7.38;;;2.13;;
5823;SDS011;2938;52.254;12.988;2023-02-01T12:28:31;7.80;;;2.33;;
5823;SDS011;2938;52.254;12.988;2023-02-01T12:31:18;14.55;;;3.20;;
5823;SDS011;2938;52.254;12.988;2023-02-01T12:36:36;12.70;;;2.05;;
5823;SDS011;2938;52.254;12.988;2023-02-01T12:39:14;10.23;;;3.60;;
5823;SDS011;2938;52.254;12.988;2023-02-01T12:44:24;11.33;;;3.10;;
5823;SDS011;2938;52.254;12.988;2023-02-01T12:46:57;14.63;;;4.07;;
5823;SDS011;2938;52.254;12.988;2023-02-01T12:49:43;6.45;;;2.60;;
5823;SDS011;2938;52.254;12.988;2023-02-01T12:52:13;14.02;;;3.30;;
5823;SDS011;2938;52.254;12.988;2023-02-01T12:57:31;7.75;;;2.88;;
5823;SDS011;2938;52.254;12.988;2023-02-01T13:00:13;12.75;;;3.75;;
5823;SDS011;2938;52.254;12.988;2023-02-01T13:02:50;13.15;;;3.30;;
5823;SDS011;2938;52.254;12.988;2023-02-01T13:05:21;11.07;;;3.10;;
5823;SDS011;2938;52.254;12.988;2023-02-01T13:07:59;12.98;;;3.65;;
5823;SDS011;2938;52.254;12.988;2023-02-01T13:10:30;10.25;;;2.97;;
5823;SDS011;2938;52.254;12.988;2023-02-01T13:13:04;12.40;;;3.67;;
5823;SDS011;2938;52.254;12.988;2023-02-01T13:15:57;10.48;;;2.80;;
5823;SDS011;2938;52.254;12.988;2023-02-01T13:18:33;13.10;;;3.78;;
5823;SDS011;2938;52.254;12.988;2023-02-01T13:21:05;12.40;;;3.80;;
5823;SDS011;2938;52.254;12.988;2023-02-01T13:23:34;16.50;;;3.10;;
5823;SDS011;2938;52.254;12.988;2023-02-01T13:26:03;7.68;;;3.47;;
5823;SDS011;2938;52.254;12.988;2023-02-01T13:28:30;10.43;;;2.97;;
5823;SDS011;2938;52.254;12.988;2023-02-01T13:31:09;8.95;;;3.33;;
5823;SDS011;2938;52.254;12.988;2023-02-01T13:33:47;12.07;;;3.35;;
5823;SDS011;2938;52.254;12.988;2023-02-01T13:36:51;14.60;;;4.13;;
5823;SDS011;2938;52.254;12.988;2023-02-01T13:39:39;11.30;;;2.58;;
5823;SDS011;2938;52.254;12.988;2023-02-01T13:42:18;14.27;;;2.85;;
5823;SDS011;2938;52.254;12.988;2023-02-01T13:44:48;13.77;;;4.55;;
5823;SDS011;2938;52.254;12.988;2023-02-01T13:49:49;23.85;;;4.47;;
5823;SDS011;2938;52.254;12.988;2023-02-01T13:55:27;9.98;;;4.07;;
5823;SDS011;2938;52.254;12.988;2023-02-01T14:00:32;19.27;;;3.30;;
5823;SDS011;2938;52.254;12.988;2023-02-01T14:11:02;17.42;;;4.50;;
5823;SDS011;2938;52.254;12.988;2023-02-01T14:13:28;9.73;;;3.22;;
5823;SDS011;2938;52.254;12.988;2023-02-01T14:34:31;16.98;;;4.50;;
5823;SDS011;2938;52.254;12.988;2023-02-01T14:37:02;14.38;;;4.88;;
5823;SDS011;2938;52.254;12.988;2023-02-01T14:42:52;12.23;;;3.67;;
5823;SDS011;2938;52.254;12.988;2023-02-01T14:50:39;9.18;;;2.42;;
5823;SDS011;2938;52.254;12.988;2023-02-01T14:55:36;11.25;;;1.90;;
5823;SDS011;2938;52.254;12.988;2023-02-01T14:58:05;4.07;;;1.80;;
5823;SDS011;2938;52.254;12.988;2023-02-01T15:00:32;8.20;;;3.65;;
5823;SDS011;2938;52.254;12.988;2023-02-01T15:03:43;2.65;;;1.90;;
5823;SDS011;2938;52.254;12.988;2023-02-01T15:05:59;2.42;;;1.60;;
5823;SDS011;2938;52.254;12.988;2023-02-01T15:08:30;23.42;;;4.18;;
5823;SDS011;2938;52.254;12.988;2023-02-01T15:10:56;16.77;;;3.33;;
5823;SDS011;2938;52.254;12.988;2023-02-01T15:13:24;6.35;;;2.03;;
5823;SDS011;2938;52.254;12.988;2023-02-01T15:16:04;13.82;;;3.30;;
5823;SDS011;2938;52.254;12.988;2023-02-01T15:18:30;18.45;;;4.13;;
5823;SDS011;2938;52.254;12.988;2023-02-01T15:20:56;13.32;;;3.42;;
5823;SDS011;2938;52.254;12.988;2023-02-01T15:23:23;8.95;;;3.75;;
5823;SDS011;2938;52.254;12.988;2023-02-01T15:25:49;18.50;;;4.22;;
5823;SDS011;2938;52.254;12.988;2023-02-01T15:28:15;9.85;;;3.20;;
5823;SDS011;2938;52.254;12.988;2023-02-01T15:30:51;10.38;;;4.05;;
5823;SDS011;2938;52.254;12.988;2023-02-01T15:33:18;11.30;;;4.47;;
5823;SDS011;2938;52.254;12.988;2023-02-01T15:38:25;14.60;;;5.20;;
5823;SDS011;2938;52.254;12.988;2023-02-01T15:43:28;14.95;;;3.85;;
5823;SDS011;2938;52.254;12.988;2023-02-01T15:45:56;17.10;;;5.72;;
5823;SDS011;2938;52.254;12.988;2023-02-01T15:48:23;8.52;;;4.25;;
5823;SDS011;2938;52.254;12.988;2023-02-01T15:50:50;6.20;;;3.55;;
5823;SDS011;2938;52.254;12.988;2023-02-01T15:53:21;8.27;;;3.25;;
5823;SDS011;2938;52.254;12.988;2023-02-01T15:55:53;14.98;;;3.53;;
5823;SDS011;2938;52.254;12.988;2023-02-01T15:58:21;3.95;;;2.55;;
5823;SDS011;2938;52.254;12.988;2023-02-01T16:00:54;6.05;;;2.17;;
5823;SDS011;2938;52.254;12.988;2023-02-01T16:03:24;2.65;;;2.42;;
5823;SDS011;2938;52.254;12.988;2023-02-01T16:06:01;6.05;;;2.00;;
5823;SDS011;2938;52.254;12.988;2023-02-01T16:08:28;1.90;;;1.52;;
5823;SDS011;2938;52.254;12.988;2023-02-01T16:11:00;0.95;;;0.88;;
5823;SDS011;2938;52.254;12.988;2023-02-01T16:13:40;4.07;;;1.17;;
5823;SDS011;2938;52.254;12.988;2023-02-01T16:16:06;3.15;;;0.90;;
5823;SDS011;2938;52.254;12.988;2023-02-01T16:18:34;2.78;;;0.68;;
5823;SDS011;2938;52.254;12.988;2023-02-01T16:20:59;0.40;;;0.40;;
5823;SDS011;2938;52.254;12.988;2023-02-01T16:23:24;0.70;;;0.50;;
5823;SDS011;2938;52.254;12.988;2023-02-01T16:25:51;0.77;;;0.52;;
5823;SDS011;2938;52.254;12.988;2023-02-01T16:28:17;1.17;;;0.55;;
5823;SDS011;2938;52.254;12.988;2023-02-01T16:30:42;7.78;;;0.95;;
5823;SDS011;2938;52.254;12.988;2023-02-01T16:33:11;2.33;;;2.13;;
5823;SDS011;2938;52.254;12.988;2023-02-01T16:35:37;1.40;;;0.70;;
5823;SDS011;2938;52.254;12.988;2023-02-01T16:38:03;1.63;;;1.15;;
5823;SDS011;2938;52.254;12.988;2023-02-01T16:40:33;1.77;;;0.80;;
5823;SDS011;2938;52.254;12.988;2023-02-01T16:43:02;0.68;;;0.68;;
5823;SDS011;2938;52.254;12.988;2023-02-01T16:45:28;5.32;;;1.48;;
5823;SDS011;2938;52.254;12.988;2023-02-01T16:47:54;1.42;;;1.00;;
5823;SDS011;2938;52.254;12.988;2023-02-01T16:50:22;3.83;;;1.17;;
5823;SDS011;2938;52.254;12.988;2023-02-01T16:52:52;1.52;;;0.93;;
5823;SDS011;2938;52.254;12.988;2023-02-01T16:55:18;4.88;;;1.70;;
5823;SDS011;2938;52.254;12.988;2023-02-01T16:57:46;3.47;;;1.50;;
5823;SDS011;2938;52.254;12.988;2023-02-01T17:00:11;1.75;;;0.98;;
5823;SDS011;2938;52.254;12.988;2023-02-01T17:02:38;1.98;;;1.10;;
5823;SDS011;2938;52.254;12.988;2023-02-01T17:05:04;3.20;;;1.23;;
5823;SDS011;2938;52.254;12.988;2023-02-01T17:07:30;3.85;;;1.08;;
5823;SDS011;2938;52.254;12.988;2023-02-01T17:09:55;2.92;;;1.08;;
5823;SDS011;2938;52.254;12.988;2023-02-01T17:12:22;4.68;;;0.93;;
5823;SDS011;2938;52.254;12.988;2023-02-01T17:14:55;4.30;;;1.13;;